createdAt,value
2022-10-11T00:02:11.922Z,101792.53
2022-10-11T00:04:56.982Z,101792.19
2022-10-11T00:07:42.484Z,101796.00
2022-10-11T00:10:27.620Z,101793.03
2022-10-11T00:13:12.581Z,101800.06
2022-10-11T00:15:58.048Z,101803.09
2022-10-11T00:18:42.928Z,101801.88
2022-10-11T00:21:27.986Z,101797.81
2022-10-11T00:24:13.619Z,101798.34
2022-10-11T00:26:58.796Z,101803.03
2022-10-11T00:29:43.862Z,101797.28
2022-10-11T00:32:29.015Z,101808.59
2022-10-11T00:35:14.981Z,101806.91
2022-10-11T00:37:59.993Z,101809.53
2022-10-11T00:40:45.831Z,101805.81
2022-10-11T00:43:32.236Z,101806.19
2022-10-11T00:46:26.970Z,101808.78
2022-10-11T00:49:25.463Z,101809.13
2022-10-11T00:52:32.994Z,101809.53
2022-10-11T00:55:20.621Z,101807.75
2022-10-11T00:58:06.497Z,101814.50
2022-10-11T01:00:52.041Z,101810.41
2022-10-11T01:03:38.514Z,101812.03
2022-10-11T01:06:23.376Z,101802.78
2022-10-11T01:09:09.769Z,101815.31
2022-10-11T01:11:57.960Z,101813.84
2022-10-11T01:15:07.028Z,101814.44
2022-10-11T01:18:03.395Z,101813.63
2022-10-11T01:21:01.554Z,101814.56
2022-10-11T01:24:07.492Z,101818.41
2022-10-11T01:27:18.516Z,101818.81
2022-10-11T01:30:07.170Z,101814.38
2022-10-11T01:33:29.982Z,101815.47
2022-10-11T01:36:31.236Z,101818.44
2022-10-11T01:39:23.991Z,101819.78
2022-10-11T01:42:12.228Z,101821.25
2022-10-11T01:44:59.227Z,101827.47
2022-10-11T01:47:45.865Z,101831.69
2022-10-11T01:50:45.051Z,101830.13
2022-10-11T01:53:48.442Z,101836.97
2022-10-11T01:57:14.391Z,101836.38
2022-10-11T02:00:12.627Z,101842.16
2022-10-11T02:03:07.068Z,101843.69
2022-10-11T02:06:03.931Z,101843.03
2022-10-11T02:09:08.322Z,101839.06
2022-10-11T02:11:57.994Z,101844.50
2022-10-11T02:14:46.916Z,101848.59
2022-10-11T02:17:37.104Z,101841.91
2022-10-11T02:20:25.738Z,101841.06
2022-10-11T02:23:15.171Z,101847.06
2022-10-11T02:26:04.313Z,101849.91
2022-10-11T02:28:51.525Z,101844.25
2022-10-11T02:31:37.994Z,101853.59
2022-10-11T02:34:40.723Z,101849.75
2022-10-11T02:37:58.185Z,101850.84
2022-10-11T02:40:47.665Z,101853.69
2022-10-11T02:43:36.496Z,101852.28
2022-10-11T02:46:22.071Z,101861.38
2022-10-11T02:49:08.296Z,101858.72
2022-10-11T02:51:55.786Z,101862.84
2022-10-11T02:54:41.012Z,101867.69
2022-10-11T02:57:25.930Z,101873.19
2022-10-11T03:00:11.774Z,101868.47
2022-10-11T03:02:56.671Z,101878.13
2022-10-11T03:05:42.047Z,101872.59
2022-10-11T03:08:27.923Z,101874.94
2022-10-11T03:11:12.906Z,101879.94
2022-10-11T03:13:58.068Z,101877.34
2022-10-11T03:16:43.183Z,101882.19
2022-10-11T03:19:28.031Z,101878.72
2022-10-11T03:22:13.179Z,101887.75
2022-10-11T03:25:03.388Z,101887.31
2022-10-11T03:27:48.906Z,101888.66
2022-10-11T03:30:34.060Z,101890.59
2022-10-11T03:33:18.984Z,101885.63
2022-10-11T03:36:04.614Z,101883.59
2022-10-11T03:38:49.655Z,101889.31
2022-10-11T03:41:34.716Z,101905.28
2022-10-11T03:44:19.603Z,101894.41
2022-10-11T03:47:05.387Z,101889.94
2022-10-11T03:49:50.184Z,101890.50
2022-10-11T03:52:36.043Z,101895.09
2022-10-11T03:55:21.178Z,101899.81
2022-10-11T03:58:06.428Z,101895.16
2022-10-11T04:00:52.651Z,101904.75
2022-10-11T04:03:37.863Z,101905.47
2022-10-11T04:06:23.313Z,101908.47
2022-10-11T04:09:08.163Z,101903.50
2022-10-11T04:11:53.206Z,101909.72
2022-10-11T04:14:38.282Z,101913.00
2022-10-11T04:17:23.246Z,101915.44
2022-10-11T04:20:08.955Z,101917.34
2022-10-11T04:22:53.866Z,101917.06
2022-10-11T04:25:39.554Z,101917.16
2022-10-11T04:28:24.702Z,101927.63
2022-10-11T04:31:09.559Z,101926.19
2022-10-11T04:33:54.606Z,101931.34
2022-10-11T04:36:39.860Z,101931.66
2022-10-11T04:39:24.774Z,101936.22
2022-10-11T04:42:10.495Z,101935.69
2022-10-11T04:44:55.700Z,101935.75
2022-10-11T04:47:41.489Z,101935.84
2022-10-11T04:50:26.575Z,101944.81
2022-10-11T04:53:11.619Z,101947.00
2022-10-11T04:56:02.246Z,101949.53
2022-10-11T04:58:53.944Z,101946.66
2022-10-11T05:01:39.075Z,101946.09
2022-10-11T05:04:23.780Z,101948.56
2022-10-11T05:07:08.812Z,101946.16
2022-10-11T05:09:54.504Z,101952.09
2022-10-11T05:12:39.470Z,101952.72
2022-10-11T05:15:24.319Z,101957.22
2022-10-11T05:18:09.336Z,101962.00
2022-10-11T05:21:03.192Z,101962.31
2022-10-11T05:23:49.586Z,101969.03
2022-10-11T05:26:34.464Z,101965.16
2022-10-11T05:29:19.783Z,101974.84
2022-10-11T05:32:05.195Z,101976.84
2022-10-11T05:34:50.110Z,101986.44
2022-10-11T05:37:35.238Z,101985.50
2022-10-11T05:40:20.046Z,101984.97
2022-10-11T05:43:05.912Z,101991.28
2022-10-11T05:45:50.613Z,101990.25
2022-10-11T05:48:36.170Z,101987.81
2022-10-11T05:51:21.263Z,101985.19
2022-10-11T05:54:06.377Z,101998.34
2022-10-11T05:56:51.526Z,101992.47
2022-10-11T05:59:36.546Z,101995.41
2022-10-11T06:02:21.355Z,101992.16
2022-10-11T06:05:06.455Z,102000.38
2022-10-11T06:07:51.514Z,102006.88
2022-10-11T06:10:38.214Z,101999.09
2022-10-11T06:13:23.157Z,102008.91
2022-10-11T06:16:08.889Z,102007.53
2022-10-11T06:18:54.668Z,102015.75
2022-10-11T06:21:39.415Z,102014.28
2022-10-11T06:24:24.240Z,102015.75
2022-10-11T06:27:09.796Z,102023.09
2022-10-11T06:29:54.751Z,102023.75
2022-10-11T06:32:39.684Z,102028.91
2022-10-11T06:35:24.682Z,102028.81
2022-10-11T06:38:09.682Z,102035.44
2022-10-11T06:40:54.817Z,102040.72
2022-10-11T06:43:39.868Z,102051.34
2022-10-11T06:46:27.134Z,102050.59
2022-10-11T06:49:12.453Z,102052.41
2022-10-11T06:51:57.651Z,102060.75
2022-10-11T06:54:44.988Z,102059.81
2022-10-11T06:57:30.353Z,102060.97
2022-10-11T07:00:15.984Z,102063.53
2022-10-11T07:03:01.277Z,102064.69
2022-10-11T07:05:46.240Z,102068.94
2022-10-11T07:08:31.652Z,102074.09
2022-10-11T07:11:19.576Z,102072.53
2022-10-11T07:14:07.673Z,102079.03
2022-10-11T07:16:52.768Z,102073.13
2022-10-11T07:19:37.787Z,102080.16
2022-10-11T07:22:23.301Z,102086.91
2022-10-11T07:25:08.763Z,102085.84
2022-10-11T07:27:53.432Z,102093.53
2022-10-11T07:30:40.151Z,102099.72
2022-10-11T07:33:25.182Z,102103.84
2022-10-11T07:36:11.220Z,102103.03
2022-10-11T07:38:56.308Z,102100.34
2022-10-11T07:41:45.599Z,102102.22
2022-10-11T07:44:31.071Z,102092.78
2022-10-11T07:47:15.974Z,102098.38
2022-10-11T07:50:01.035Z,102094.53
2022-10-11T07:52:46.196Z,102101.59
2022-10-11T07:55:34.603Z,102100.81
2022-10-11T07:58:19.859Z,102107.00
2022-10-11T08:01:05.276Z,102102.72
2022-10-11T08:03:50.960Z,102104.66
2022-10-11T08:06:36.516Z,102113.59
2022-10-11T08:09:21.407Z,102120.53
2022-10-11T08:12:06.579Z,102120.97
2022-10-11T08:14:54.920Z,102129.78
2022-10-11T08:17:39.904Z,102131.19
2022-10-11T08:20:24.871Z,102126.19
2022-10-11T08:23:10.043Z,102132.66
2022-10-11T08:25:57.093Z,102124.16
2022-10-11T08:28:42.098Z,102127.63
2022-10-11T08:31:27.397Z,102126.63
2022-10-11T08:34:12.890Z,102126.06
2022-10-11T08:36:58.079Z,102124.84
2022-10-11T08:39:43.206Z,102129.31
2022-10-11T08:42:34.363Z,102121.56
2022-10-11T08:45:40.902Z,102125.09
2022-10-11T08:48:50.805Z,102123.28
2022-10-11T08:51:42.895Z,102124.09
2022-10-11T08:54:49.324Z,102118.72
2022-10-11T08:57:37.293Z,102117.84
2022-10-11T09:00:23.602Z,102122.06
2022-10-11T09:03:24.449Z,102131.56
2022-10-11T09:06:29.566Z,102129.84
2022-10-11T09:09:36.272Z,102127.72
2022-10-11T09:12:48.213Z,102129.28
2022-10-11T09:15:48.431Z,102122.59
2022-10-11T09:18:47.395Z,102116.81
2022-10-11T09:21:46.620Z,102117.75
2022-10-11T09:24:55.708Z,102123.88
2022-10-11T09:28:03.826Z,102133.38
2022-10-11T09:30:52.515Z,102124.47
2022-10-11T09:33:47.581Z,102128.19
2022-10-11T09:36:54.015Z,102118.63
2022-10-11T09:39:49.721Z,102131.22
2022-10-11T09:42:34.402Z,102121.88
2022-10-11T09:45:21.426Z,102128.38
2022-10-11T09:48:07.425Z,102134.94
2022-10-11T09:50:56.815Z,102139.03
2022-10-11T09:54:03.450Z,102135.84
2022-10-11T09:56:48.546Z,102137.78
2022-10-11T09:59:35.056Z,102139.25
2022-10-11T10:02:22.991Z,102141.88
2022-10-11T10:05:10.732Z,102141.19
2022-10-11T10:08:05.396Z,102141.09
2022-10-11T10:10:59.431Z,102140.31
2022-10-11T10:13:52.048Z,102133.28
2022-10-11T10:16:37.136Z,102133.69
2022-10-11T10:19:23.209Z,102142.53
2022-10-11T10:22:18.656Z,102135.22
2022-10-11T10:25:07.962Z,102131.91
2022-10-11T10:27:58.502Z,102130.94
2022-10-11T10:30:54.212Z,102121.16
2022-10-11T10:33:39.443Z,102129.75
2022-10-11T10:36:34.296Z,102129.59
2022-10-11T10:39:30.867Z,102127.91
2022-10-11T10:42:19.916Z,102125.78
2022-10-11T10:45:12.217Z,102124.84
2022-10-11T10:48:15.171Z,102124.56
2022-10-11T10:51:11.208Z,102125.56
2022-10-11T10:54:25.275Z,102120.25
2022-10-11T10:57:17.800Z,102119.25
2022-10-11T11:00:16.172Z,102109.94
2022-10-11T11:03:15.460Z,102106.59
2022-10-11T11:06:09.911Z,102119.91
2022-10-11T11:09:05.553Z,102102.69
2022-10-11T11:12:09.971Z,102105.91
2022-10-11T11:15:01.562Z,102099.16
2022-10-11T11:18:07.811Z,102097.22
2022-10-11T11:21:15.010Z,102103.09
2022-10-11T11:24:16.877Z,102092.72
2022-10-11T11:27:09.994Z,102089.72
2022-10-11T11:30:36.474Z,102089.19
2022-10-11T11:33:38.047Z,102094.03
2022-10-11T11:36:40.279Z,102091.38
2022-10-11T11:39:26.987Z,102088.56
2022-10-11T11:42:17.981Z,102091.38
2022-10-11T11:45:15.121Z,102082.22
2022-10-11T11:48:03.661Z,102080.00
2022-10-11T11:51:07.943Z,102074.41
2022-10-11T11:54:29.459Z,102078.47
2022-10-11T11:57:35.335Z,102081.25
2022-10-11T12:00:27.442Z,102079.72
2022-10-11T12:03:20.541Z,102067.75
2022-10-11T12:06:14.617Z,102067.25
2022-10-11T12:09:07.751Z,102072.25
2022-10-11T12:11:59.054Z,102070.72
2022-10-11T12:14:44.081Z,102065.59
2022-10-11T12:17:28.975Z,102065.88
2022-10-11T12:20:26.028Z,102064.84
2022-10-11T12:23:29.148Z,102057.38
2022-10-11T12:26:32.983Z,102051.00
2022-10-11T12:29:36.562Z,102050.59
2022-10-11T12:32:27.596Z,102054.63
2022-10-11T12:35:31.129Z,102042.88
2022-10-11T12:38:33.642Z,102042.44
2022-10-11T12:41:18.595Z,102041.81
2022-10-11T12:44:22.597Z,102042.38
2022-10-11T12:47:39.571Z,102041.97
2022-10-11T12:51:03.602Z,102033.28
2022-10-11T12:54:25.930Z,102024.81
2022-10-11T12:57:46.207Z,102018.47
2022-10-11T13:00:41.451Z,102024.44
2022-10-11T13:03:57.448Z,102016.09
2022-10-11T13:06:48.699Z,102011.13
2022-10-11T13:09:39.042Z,102009.38
2022-10-11T13:12:26.654Z,102001.00
2022-10-11T13:15:16.284Z,102004.16
2022-10-11T13:18:02.173Z,102001.84
2022-10-11T13:20:47.173Z,101995.28
2022-10-11T13:23:40.039Z,101993.50
2022-10-11T13:26:27.628Z,101993.25
2022-10-11T13:29:23.270Z,101991.81
2022-10-11T13:32:14.621Z,101993.16
2022-10-11T13:35:14.556Z,101987.53
2022-10-11T13:38:00.151Z,101996.00
2022-10-11T13:40:50.053Z,101989.91
2022-10-11T13:43:36.940Z,101997.69
2022-10-11T13:46:26.876Z,101995.44
2022-10-11T13:49:39.991Z,101987.06
2022-10-11T13:52:25.375Z,101989.50
2022-10-11T13:55:29.004Z,101984.34
2022-10-11T13:58:23.486Z,101985.75
2022-10-11T14:01:22.222Z,101978.25
2022-10-11T14:04:11.713Z,101975.38
2022-10-11T14:07:02.356Z,101980.00
2022-10-11T14:09:48.676Z,101975.28
2022-10-11T14:12:39.520Z,101973.16
2022-10-11T14:15:28.312Z,101974.28
2022-10-11T14:18:33.449Z,101972.91
2022-10-11T14:21:30.811Z,101969.78
2022-10-11T14:24:17.695Z,101967.81
2022-10-11T14:27:05.705Z,101959.53
2022-10-11T14:30:19.866Z,101960.41
2022-10-11T14:32:59.263Z,101961.19
2022-10-11T14:35:44.251Z,101959.50
2022-10-11T14:38:29.475Z,101954.78
2022-10-11T14:41:14.258Z,101966.34
2022-10-11T14:43:59.329Z,101952.72
2022-10-11T14:46:46.095Z,101955.38
2022-10-11T14:49:33.617Z,101951.81
2022-10-11T14:52:19.578Z,101955.00
2022-10-11T14:55:04.761Z,101948.31
2022-10-11T14:57:50.325Z,101943.31
2022-10-11T15:00:36.465Z,101942.00
2022-10-11T15:03:21.523Z,101951.19
2022-10-11T15:06:21.290Z,101945.63
2022-10-11T15:09:07.273Z,101943.38
2022-10-11T15:11:54.633Z,101940.56
2022-10-11T15:14:39.811Z,101936.28
2022-10-11T15:17:24.709Z,101941.22
2022-10-11T15:20:27.304Z,101945.88
2022-10-11T15:23:12.520Z,101937.19
2022-10-11T15:25:57.608Z,101936.81
2022-10-11T15:28:43.677Z,101936.50
2022-10-11T15:31:28.750Z,101930.09
2022-10-11T15:34:14.666Z,101926.75
2022-10-11T15:36:59.879Z,101935.06
2022-10-11T15:39:44.859Z,101935.94
2022-10-11T15:42:29.817Z,101937.75
2022-10-11T15:45:16.263Z,101936.66
2022-10-11T15:48:01.248Z,101935.81
2022-10-11T15:50:46.349Z,101927.44
2022-10-11T15:53:32.162Z,101931.53
2022-10-11T15:56:18.780Z,101930.59
2022-10-11T15:59:03.852Z,101935.72
2022-10-11T16:01:48.756Z,101941.34
2022-10-11T16:04:33.570Z,101936.53
2022-10-11T16:07:18.836Z,101931.84
2022-10-11T16:10:04.983Z,101930.59
2022-10-11T16:12:50.135Z,101936.34
2022-10-11T16:15:40.629Z,101938.19
2022-10-11T16:18:25.552Z,101933.47
2022-10-11T16:21:12.844Z,101929.41
2022-10-11T16:23:57.902Z,101931.09
2022-10-11T16:26:43.827Z,101924.66
2022-10-11T16:29:28.982Z,101930.09
2022-10-11T16:32:14.122Z,101933.41
2022-10-11T16:34:59.114Z,101928.38
2022-10-11T16:37:44.794Z,101928.66
2022-10-11T16:40:30.027Z,101937.16
2022-10-11T16:43:15.288Z,101934.75
2022-10-11T16:46:00.373Z,101935.84
2022-10-11T16:48:45.497Z,101933.34
2022-10-11T16:51:30.513Z,101932.91
2022-10-11T16:54:20.569Z,101933.56
2022-10-11T16:57:05.797Z,101940.38
2022-10-11T16:59:50.951Z,101928.22
2022-10-11T17:02:36.543Z,101945.66
2022-10-11T17:05:21.500Z,101933.47
2022-10-11T17:08:06.464Z,101929.44
2022-10-11T17:10:57.741Z,101935.50
2022-10-11T17:13:44.068Z,101931.56
2022-10-11T17:16:29.119Z,101939.91
2022-10-11T17:19:15.490Z,101938.88
2022-10-11T17:22:00.632Z,101938.72
2022-10-11T17:24:45.939Z,101929.63
2022-10-11T17:27:31.130Z,101933.63
2022-10-11T17:30:15.985Z,101936.78
2022-10-11T17:33:00.844Z,101930.44
2022-10-11T17:35:46.067Z,101930.38
2022-10-11T17:38:30.879Z,101935.06
2022-10-11T17:41:16.681Z,101930.63
2022-10-11T17:44:02.883Z,101929.81
2022-10-11T17:46:48.594Z,101926.75
2022-10-11T17:49:33.919Z,101925.25
2022-10-11T17:52:19.228Z,101930.75
2022-10-11T17:55:05.597Z,101930.50
2022-10-11T17:57:50.861Z,101934.97
2022-10-11T18:00:36.876Z,101937.00
2022-10-11T18:03:21.797Z,101934.16
2022-10-11T18:06:09.624Z,101936.56
2022-10-11T18:08:55.770Z,101936.59
2022-10-11T18:11:40.861Z,101932.19
2022-10-11T18:14:25.613Z,101925.22
2022-10-11T18:17:10.969Z,101915.84
2022-10-11T18:19:56.434Z,101920.81
2022-10-11T18:22:42.609Z,101916.25
2022-10-11T18:25:27.452Z,101915.38
2022-10-11T18:28:12.577Z,101913.97
2022-10-11T18:30:58.872Z,101911.44
2022-10-11T18:33:45.901Z,101914.22
2022-10-11T18:36:31.738Z,101907.94
2022-10-11T18:39:17.042Z,101905.81
2022-10-11T18:42:04.478Z,101909.88
2022-10-11T18:44:49.283Z,101909.63
2022-10-11T18:47:34.602Z,101909.25
2022-10-11T18:50:20.599Z,101910.13
2022-10-11T18:53:06.791Z,101909.16
2022-10-11T18:55:57.933Z,101917.34
2022-10-11T18:58:45.601Z,101919.84
2022-10-11T19:01:33.494Z,101926.97
2022-10-11T19:04:19.041Z,101917.56
2022-10-11T19:07:04.739Z,101919.50
2022-10-11T19:09:49.947Z,101923.34
2022-10-11T19:12:35.060Z,101921.91
2022-10-11T19:15:19.928Z,101930.06
2022-10-11T19:18:05.312Z,101926.09
2022-10-11T19:20:50.206Z,101926.47
2022-10-11T19:23:42.206Z,101924.16
2022-10-11T19:26:31.191Z,101927.31
2022-10-11T19:29:21.067Z,101923.56
2022-10-11T19:32:06.044Z,101916.09
2022-10-11T19:34:51.192Z,101924.66
2022-10-11T19:37:36.264Z,101928.69
2022-10-11T19:40:21.594Z,101919.81
2022-10-11T19:43:06.921Z,101922.56
2022-10-11T19:45:58.635Z,101928.09
2022-10-11T19:48:44.498Z,101922.56
2022-10-11T19:51:34.724Z,101920.66
2022-10-11T19:54:19.976Z,101928.69
2022-10-11T19:57:05.154Z,101927.03
2022-10-11T19:59:50.007Z,101929.53
2022-10-11T20:02:34.824Z,101929.78
2022-10-11T20:05:19.842Z,101931.94
2022-10-11T20:08:05.022Z,101928.16
2022-10-11T20:10:53.324Z,101929.22
2022-10-11T20:13:39.694Z,101933.63
2022-10-11T20:16:27.097Z,101926.63
2022-10-11T20:19:11.800Z,101927.66
2022-10-11T20:22:00.597Z,101923.94
2022-10-11T20:24:45.800Z,101930.56
2022-10-11T20:27:31.567Z,101934.50
2022-10-11T20:30:17.150Z,101928.81
2022-10-11T20:33:02.631Z,101922.94
2022-10-11T20:36:04.049Z,101926.03
2022-10-11T20:38:50.401Z,101925.63
2022-10-11T20:41:39.669Z,101923.97
2022-10-11T20:44:24.739Z,101920.25
2022-10-11T20:47:09.831Z,101926.69
2022-10-11T20:49:54.646Z,101919.34
2022-10-11T20:52:39.846Z,101921.88
2022-10-11T20:55:24.751Z,101915.13
2022-10-11T20:58:09.864Z,101912.50
2022-10-11T21:00:55.083Z,101914.47
2022-10-11T21:03:41.068Z,101919.34
2022-10-11T21:06:28.120Z,101925.50
2022-10-11T21:09:15.613Z,101917.56
2022-10-11T21:12:02.048Z,101913.94
2022-10-11T21:14:47.237Z,101918.06
2022-10-11T21:17:32.015Z,101914.06
2022-10-11T21:20:17.844Z,101917.34
2022-10-11T21:23:02.585Z,101919.47
2022-10-11T21:25:47.597Z,101914.50
2022-10-11T21:28:32.900Z,101909.25
2022-10-11T21:31:19.624Z,101905.25
2022-10-11T21:34:06.600Z,101906.22
2022-10-11T21:36:51.791Z,101899.69
2022-10-11T21:39:36.911Z,101904.34
2022-10-11T21:42:25.884Z,101902.03
2022-10-11T21:45:13.649Z,101896.38
2022-10-11T21:47:58.656Z,101893.13
2022-10-11T21:50:43.844Z,101892.78
2022-10-11T21:53:28.642Z,101902.47
2022-10-11T21:56:13.787Z,101900.00
2022-10-11T21:58:58.903Z,101900.81
2022-10-11T22:01:44.201Z,101903.47
2022-10-11T22:04:29.128Z,101909.56
2022-10-11T22:07:14.082Z,101912.03
2022-10-11T22:09:59.257Z,101901.50
2022-10-11T22:12:44.556Z,101914.47
2022-10-11T22:15:33.639Z,101919.97
2022-10-11T22:18:19.054Z,101912.69
2022-10-11T22:21:13.240Z,101908.78
2022-10-11T22:23:58.082Z,101914.72
2022-10-11T22:26:43.258Z,101910.50
2022-10-11T22:29:33.184Z,101916.59
2022-10-11T22:32:19.190Z,101921.03
2022-10-11T22:35:04.567Z,101921.44
2022-10-11T22:37:52.421Z,101921.44
2022-10-11T22:40:39.916Z,101920.72
2022-10-11T22:43:24.923Z,101919.97
2022-10-11T22:46:10.131Z,101923.13
2022-10-11T22:48:55.100Z,101916.81
2022-10-11T22:51:40.273Z,101917.09
2022-10-11T22:54:24.950Z,101912.47
2022-10-11T22:57:10.237Z,101911.75
2022-10-11T22:59:55.203Z,101916.72
2022-10-11T23:02:40.242Z,101914.38
2022-10-11T23:05:25.196Z,101915.56
2022-10-11T23:08:10.378Z,101919.13
2022-10-11T23:10:55.496Z,101918.47
2022-10-11T23:13:40.508Z,101920.03
2022-10-11T23:16:25.411Z,101924.03
2022-10-11T23:19:10.420Z,101917.50
2022-10-11T23:21:55.532Z,101923.81
2022-10-11T23:24:40.512Z,101929.38
2022-10-11T23:27:25.322Z,101919.81
2022-10-11T23:30:11.587Z,101919.94
2022-10-11T23:32:56.615Z,101908.28
2022-10-11T23:35:41.846Z,101907.50
2022-10-11T23:38:26.598Z,101911.00
2022-10-11T23:41:11.768Z,101911.50
2022-10-11T23:43:57.906Z,101908.97
2022-10-11T23:46:42.993Z,101909.53
2022-10-11T23:49:27.892Z,101911.19
2022-10-11T23:52:13.177Z,101914.34
2022-10-11T23:54:58.242Z,101912.44
2022-10-11T23:57:43.179Z,101904.47
